Time;durP1;ratioP1;P1;durP2;ratioP2;P2;SDS_P1;SDS_P2;PMS_P1;PMS_P2;Temp;Humidity;BMP_temperature;BMP_pressure;BME280_temperature;BME280_humidity;BME280_pressure;Samples;Min_cycle;Max_cycle;Signal;HPM_P1;HPM_P2
2022/06/14 00:01:20;;;;;;;7.43;2.03;;;;;;;14.91;67.15;101045.22;6159027;23;20018;-74
2022/06/14 00:03:46;;;;;;;6.35;2.17;;;;;;;14.91;67.11;101050.81;6159042;23;20423;-74
2022/06/14 00:06:11;;;;;;;4.25;1.48;;;;;;;14.85;66.88;101049.25;6108231;23;20037;-74
2022/06/14 00:08:36;;;;;;;5.43;1.85;;;;;;;14.83;66.90;101048.72;6158808;23;20020;-74
2022/06/14 00:11:07;;;;;;;8.98;2.00;;;;;;;14.81;66.69;101051.00;6108449;23;20005;-74
2022/06/14 00:13:32;;;;;;;5.43;1.70;;;;;;;14.80;66.66;101052.16;6132876;23;20013;-74
2022/06/14 00:15:58;;;;;;;6.97;1.70;;;;;;;14.78;66.48;101050.81;6182021;23;20446;-74
2022/06/14 00:18:23;;;;;;;7.18;1.63;;;;;;;14.77;66.54;101043.56;6158889;23;20029;-74
2022/06/14 00:20:49;;;;;;;4.45;1.30;;;;;;;14.73;66.19;101043.34;6158545;23;20006;-74
2022/06/14 00:23:16;;;;;;;4.40;1.30;;;;;;;14.66;66.68;101040.94;6158947;23;20014;-74
2022/06/14 00:25:43;;;;;;;5.65;1.83;;;;;;;14.64;66.52;101039.59;6158864;23;20006;-74
2022/06/14 00:28:11;;;;;;;6.80;1.70;;;;;;;14.60;66.81;101044.13;6158676;23;20010;-74
2022/06/14 00:30:37;;;;;;;4.43;1.80;;;;;;;14.59;66.24;101034.94;6158693;23;20018;-74
2022/06/14 00:33:03;;;;;;;3.40;1.75;;;;;;;14.56;66.69;101035.53;6158694;23;20374;-74
2022/06/14 00:35:28;;;;;;;3.17;1.40;;;;;;;14.52;66.75;101037.31;6158886;23;20017;-74
2022/06/14 00:37:54;;;;;;;4.85;1.60;;;;;;;14.50;66.40;101028.38;6134118;23;20013;-74
2022/06/14 00:40:22;;;;;;;4.25;1.60;;;;;;;14.47;66.23;101046.56;6160770;23;20002;-74
2022/06/14 00:42:47;;;;;;;5.15;1.50;;;;;;;14.42;66.54;101035.50;6134917;23;20442;-74
2022/06/14 00:45:13;;;;;;;3.80;1.50;;;;;;;14.42;66.38;101038.28;6161096;23;20009;-74
2022/06/14 00:47:50;;;;;;;6.35;1.83;;;;;;;14.37;67.22;101034.75;6160682;23;20527;-74
2022/06/14 00:50:20;;;;;;;5.30;1.92;;;;;;;14.34;66.89;101027.81;6134430;23;20016;-74
2022/06/14 00:52:58;;;;;;;5.47;1.80;;;;;;;14.28;66.84;101029.03;6110502;23;20017;-74
2022/06/14 00:55:31;;;;;;;4.60;1.45;;;;;;;14.27;66.75;101030.19;6110377;23;20002;-74
2022/06/14 00:58:03;;;;;;;4.68;1.60;;;;;;;14.22;66.93;101024.69;6184145;23;20076;-74
2022/06/14 01:00:33;;;;;;;7.23;1.83;;;;;;;14.19;67.32;101025.31;6134889;23;20013;-74
2022/06/14 01:03:05;;;;;;;6.68;1.65;;;;;;;14.16;66.65;101015.56;6160504;23;20383;-74
2022/06/14 01:08:28;;;;;;;3.72;1.90;;;;;;;14.07;66.74;101017.41;6160429;23;20006;-74
2022/06/14 01:10:54;;;;;;;3.72;1.63;;;;;;;14.05;66.79;101012.13;6160538;23;20009;-74
2022/06/14 01:13:19;;;;;;;3.55;1.90;;;;;;;14.02;67.34;101004.34;6134240;23;20013;-74
2022/06/14 01:15:45;;;;;;;4.78;1.50;;;;;;;13.98;66.81;100996.88;6160407;23;20017;-74
2022/06/14 01:18:12;;;;;;;4.43;1.63;;;;;;;13.95;67.16;100991.91;6110407;23;20009;-74
2022/06/14 01:20:38;;;;;;;5.55;1.77;;;;;;;13.97;67.03;100993.25;6133888;23;20006;-74
2022/06/14 01:23:04;;;;;;;9.10;1.85;;;;;;;13.92;67.05;100989.72;6160397;23;20331;-74
2022/06/14 01:25:30;;;;;;;4.90;2.20;;;;;;;13.88;67.04;100989.50;6110027;23;20013;-74
2022/06/14 01:27:56;;;;;;;4.70;1.70;;;;;;;13.84;66.75;100994.03;6109921;23;20363;-74
2022/06/14 01:30:26;;;;;;;4.85;1.50;;;;;;;13.83;67.00;100982.03;6159871;23;20009;-74
2022/06/14 01:32:57;;;;;;;4.78;1.77;;;;;;;13.79;67.12;100980.16;6110508;23;20010;-74
2022/06/14 01:35:25;;;;;;;6.38;1.83;;;;;;;13.75;67.14;100979.13;6133845;23;20009;-74
2022/06/14 01:37:52;;;;;;;4.55;1.60;;;;;;;13.71;67.13;100986.47;6158970;23;20582;-74
2022/06/14 01:40:17;;;;;;;6.07;1.90;;;;;;;13.68;67.36;100978.66;6134203;23;20008;-74
2022/06/14 01:42:59;;;;;;;4.53;2.05;;;;;;;13.63;67.20;100977.63;6109888;23;20652;-74
2022/06/14 01:45:54;;;;;;;3.60;1.50;;;;;;;13.61;67.32;100979.88;6134718;23;20011;-74
2022/06/14 01:48:29;;;;;;;5.53;1.50;;;;;;;13.59;67.32;100982.13;6140344;23;20040;-74
2022/06/14 01:54:20;;;;;;;5.47;1.60;;;;;;;13.49;67.33;100979.53;6137947;23;20012;-74
2022/06/14 01:57:20;;;;;;;6.43;1.70;;;;;;;13.48;67.32;100975.06;6133974;23;20013;-74
2022/06/14 02:00:13;;;;;;;5.55;1.70;;;;;;;13.43;67.54;100975.16;6110425;23;20014;-74
2022/06/14 02:02:48;;;;;;;5.55;1.90;;;;;;;13.37;67.56;100974.41;6131517;23;20313;-74
2022/06/14 02:05:27;;;;;;;7.40;1.80;;;;;;;13.35;68.10;100975.84;6159548;23;20495;-74
2022/06/14 02:08:01;;;;;;;4.78;1.67;;;;;;;13.34;67.86;100968.56;6110969;23;20056;-74
2022/06/14 02:10:40;;;;;;;5.32;1.73;;;;;;;13.30;67.55;100961.97;6134044;23;20033;-74
2022/06/14 02:13:11;;;;;;;3.78;1.70;;;;;;;13.26;67.66;100963.69;6159933;23;20009;-74
2022/06/14 02:15:39;;;;;;;5.00;2.00;;;;;;;13.21;67.75;100958.16;6159939;23;20068;-74
2022/06/14 02:18:11;;;;;;;4.03;1.60;;;;;;;13.18;67.91;100960.41;6109334;23;20012;-74
2022/06/14 02:20:56;;;;;;;4.13;1.67;;;;;;;13.18;68.11;100954.84;6133217;23;20001;-74
2022/06/14 02:23:22;;;;;;;4.45;1.80;;;;;;;13.15;67.98;100952.66;6135841;23;20069;-74
2022/06/14 02:26:08;;;;;;;5.88;1.85;;;;;;;13.13;68.02;100945.72;6109136;23;20408;-74
2022/06/14 02:28:47;;;;;;;4.93;1.70;;;;;;;13.08;68.27;100952.19;6109281;23;20009;-74
2022/06/14 02:31:22;;;;;;;4.35;2.15;;;;;;;13.04;68.00;100936.34;6133382;23;20024;-74
2022/06/14 02:33:49;;;;;;;5.07;1.90;;;;;;;12.99;68.19;100934.47;6109517;23;20009;-74
2022/06/14 02:36:26;;;;;;;6.70;1.77;;;;;;;12.97;68.04;100942.31;6133284;23;20041;-74
2022/06/14 02:39:18;;;;;;;4.32;1.90;;;;;;;12.95;68.33;100939.84;6133741;23;20032;-74
2022/06/14 02:41:50;;;;;;;4.15;1.80;;;;;;;12.89;68.18;100937.38;6131036;23;20037;-74
2022/06/14 02:44:31;;;;;;;3.42;1.70;;;;;;;12.86;68.08;100935.22;6159507;23;20009;-73
2022/06/14 02:47:13;;;;;;;5.03;1.90;;;;;;;12.85;68.62;100933.56;6086020;23;20485;-74
2022/06/14 02:49:42;;;;;;;3.38;1.58;;;;;;;12.83;68.71;100930.22;6110817;23;20017;-74
2022/06/14 02:52:18;;;;;;;4.95;1.58;;;;;;;12.83;68.18;100928.28;6159643;23;20036;-74
2022/06/14 02:55:06;;;;;;;5.88;1.48;;;;;;;12.76;68.38;100925.03;6159554;23;20005;-74
2022/06/14 02:57:52;;;;;;;4.10;1.90;;;;;;;12.72;68.95;100922.00;6157742;23;20009;-74
2022/06/14 03:00:28;;;;;;;5.88;1.77;;;;;;;12.71;68.68;100920.34;6159289;23;20398;-74
2022/06/14 03:03:55;;;;;;;5.00;1.70;;;;;;;12.69;68.58;100910.63;6134029;23;20574;-74
2022/06/14 03:06:38;;;;;;;6.45;1.80;;;;;;;12.64;68.77;100903.16;6109437;23;20016;-74
2022/06/14 03:09:21;;;;;;;4.53;1.80;;;;;;;12.59;68.82;100905.16;6110987;23;20522;-74
2022/06/14 03:12:05;;;;;;;4.43;1.83;;;;;;;12.56;68.57;100898.22;6110234;23;20013;-74
2022/06/14 03:14:58;;;;;;;4.32;1.77;;;;;;;12.53;69.06;100893.25;6159327;23;20005;-74
2022/06/14 03:17:39;;;;;;;6.93;1.83;;;;;;;12.50;68.68;100897.47;6127387;23;20024;-74
2022/06/14 03:20:30;;;;;;;4.75;1.63;;;;;;;12.45;68.60;100897.56;6158866;23;20005;-74
2022/06/14 03:23:05;;;;;;;4.93;1.80;;;;;;;12.44;68.45;100893.09;6104015;23;20017;-74
2022/06/14 03:26:00;;;;;;;4.97;1.60;;;;;;;12.41;68.72;100898.44;6159169;23;20013;-74
2022/06/14 03:28:41;;;;;;;6.45;2.03;;;;;;;12.37;69.14;100895.44;6133080;23;20013;-74
2022/06/14 03:31:15;;;;;;;7.53;1.85;;;;;;;12.33;68.62;100890.72;6159057;23;20021;-75
2022/06/14 03:34:13;;;;;;;6.10;1.80;;;;;;;12.29;68.69;100887.72;6159055;23;20017;-74
2022/06/14 03:36:39;;;;;;;3.08;1.58;;;;;;;12.25;68.76;100887.47;6132945;23;20462;-74
2022/06/14 03:39:15;;;;;;;4.32;1.80;;;;;;;12.22;69.02;100882.50;6159319;23;20005;-74
2022/06/14 03:41:43;;;;;;;3.00;1.60;;;;;;;12.20;68.78;100872.78;6133242;23;20056;-74
2022/06/14 03:44:09;;;;;;;6.22;1.65;;;;;;;12.18;69.21;100875.88;6109242;23;20010;-74
2022/06/14 03:46:37;;;;;;;3.70;1.33;;;;;;;12.18;68.97;100864.72;6182272;23;20029;-74
2022/06/14 03:49:12;;;;;;;4.97;1.60;;;;;;;12.16;69.00;100863.38;6158648;23;20013;-74
2022/06/14 03:51:57;;;;;;;3.13;1.70;;;;;;;12.15;68.96;100865.31;6157791;23;20044;-74
2022/06/14 03:54:37;;;;;;;5.43;1.70;;;;;;;12.13;68.98;100864.78;6136534;23;20009;-74
2022/06/14 03:57:28;;;;;;;2.75;1.60;;;;;;;12.10;69.16;100859.81;6133052;23;20013;-73
2022/06/14 04:00:11;;;;;;;3.28;1.80;;;;;;;12.07;68.82;100860.41;6133088;23;20009;-74
2022/06/14 04:02:56;;;;;;;3.65;1.55;;;;;;;12.03;69.38;100864.88;6110651;23;20439;-74
2022/06/14 04:05:32;;;;;;;3.72;1.70;;;;;;;11.98;69.63;100854.66;6135771;23;20056;-74
2022/06/14 04:08:17;;;;;;;6.00;1.73;;;;;;;11.99;69.32;100849.91;6134245;23;20013;-74
2022/06/14 04:11:21;;;;;;;4.60;1.70;;;;;;;11.96;69.65;100856.06;6132856;23;20016;-74
2022/06/14 04:14:02;;;;;;;4.65;1.85;;;;;;;11.95;69.55;100858.03;6159938;23;20016;-74
2022/06/14 04:16:48;;;;;;;7.03;2.15;;;;;;;11.96;69.83;100859.69;6160988;23;20424;-74
2022/06/14 04:19:39;;;;;;;4.05;1.52;;;;;;;11.94;69.88;100853.56;6134475;23;20005;-74
2022/06/14 04:22:25;;;;;;;5.95;2.03;;;;;;;11.91;70.35;100859.72;6160802;23;20057;-74
2022/06/14 04:25:06;;;;;;;3.47;1.70;;;;;;;11.95;69.77;100849.69;6159837;23;20020;-74
2022/06/14 04:27:40;;;;;;;3.15;1.40;;;;;;;11.93;70.10;100857.50;6134907;23;20081;-74
2022/06/14 04:30:10;;;;;;;3.53;1.60;;;;;;;11.93;70.81;100857.50;6111275;23;20017;-74
2022/06/14 04:32:39;;;;;;;3.15;1.45;;;;;;;11.97;70.84;100858.53;6134746;23;20041;-74
2022/06/14 04:35:19;;;;;;;3.60;1.60;;;;;;;11.98;70.54;100859.38;6160779;23;20013;-74
2022/06/14 04:37:50;;;;;;;7.90;1.70;;;;;;;12.03;70.74;100853.75;6134841;23;20010;-74
2022/06/14 04:40:19;;;;;;;3.42;1.20;;;;;;;12.05;71.07;100860.69;6110974;23;20009;-74
2022/06/14 04:43:09;;;;;;;3.67;1.70;;;;;;;12.12;73.03;100852.00;6110846;23;20050;-74
2022/06/14 04:45:45;;;;;;;2.60;1.40;;;;;;;12.18;75.50;100850.81;6160795;23;20013;-74
2022/06/14 04:48:17;;;;;;;3.90;1.67;;;;;;;12.24;77.98;100846.00;6183519;23;20312;-74
2022/06/14 04:50:48;;;;;;;7.15;2.15;;;;;;;12.34;75.18;100845.91;6135090;23;20009;-74
2022/06/14 04:53:46;;;;;;;4.57;1.98;;;;;;;12.45;79.10;100861.34;6110787;23;20084;-74
2022/06/14 04:56:19;;;;;;;4.60;1.70;;;;;;;12.55;78.66;100852.00;6155964;23;20093;-74
2022/06/14 04:59:04;;;;;;;;;;;;;;;12.66;78.71;100861.88;6135114;23;20399;-72
2022/06/14 05:01:33;;;;;;;5.30;1.85;;;;;;;12.81;78.00;100865.59;6159807;23;20322;-73
2022/06/14 05:04:14;;;;;;;7.57;2.45;;;;;;;12.96;80.81;100879.31;6134479;23;20005;-73
2022/06/14 05:06:45;;;;;;;3.90;1.48;;;;;;;13.11;74.84;100865.13;6112998;23;20013;-72
2022/06/14 05:09:14;;;;;;;5.07;1.50;;;;;;;13.29;72.41;100879.38;6086358;23;20006;-72
2022/06/14 05:11:51;;;;;;;4.05;1.40;;;;;;;13.48;70.71;100876.56;6134936;23;20005;-73
2022/06/14 05:14:21;;;;;;;4.03;1.38;;;;;;;13.66;69.12;100869.31;6134657;23;20133;-73
2022/06/14 05:16:53;;;;;;;3.28;1.35;;;;;;;13.83;69.60;100872.34;6110241;23;20005;-73
2022/06/14 05:19:34;;;;;;;3.67;1.50;;;;;;;14.01;68.06;100874.25;6110579;23;20009;-73
2022/06/14 05:22:00;;;;;;;3.25;1.35;;;;;;;14.19;67.68;100878.06;6134350;23;20085;-73
2022/06/14 05:24:26;;;;;;;5.72;1.58;;;;;;;14.36;66.99;100863.50;6160251;23;20017;-72
2022/06/14 05:27:04;;;;;;;3.60;1.50;;;;;;;14.51;66.56;100874.38;6134427;23;20065;-73
2022/06/14 05:29:34;;;;;;;4.25;1.40;;;;;;;14.69;66.96;100871.78;6160160;23;20550;-72
2022/06/14 05:32:00;;;;;;;4.32;1.15;;;;;;;14.84;65.61;100877.00;6160345;23;20013;-73
2022/06/14 05:35:04;;;;;;;4.18;1.40;;;;;;;15.03;64.92;100867.66;6159833;23;20017;-73
2022/06/14 05:37:44;;;;;;;3.10;1.20;;;;;;;15.20;65.04;100867.81;6136119;23;20022;-73
2022/06/14 05:40:14;;;;;;;4.65;1.23;;;;;;;15.38;64.19;100858.41;6109602;23;20009;-73
2022/06/14 05:42:43;;;;;;;2.85;1.10;;;;;;;15.55;64.18;100854.91;6160357;23;20016;-73
2022/06/14 05:45:08;;;;;;;5.90;1.63;;;;;;;15.73;63.76;100852.22;6134778;23;20020;-73
2022/06/14 05:47:40;;;;;;;3.63;1.20;;;;;;;15.91;63.90;100854.00;6109862;23;20010;-73
2022/06/14 05:50:23;;;;;;;2.67;1.25;;;;;;;16.07;64.66;100851.56;6110574;23;20039;-73
2022/06/14 05:52:56;;;;;;;4.65;1.35;;;;;;;16.25;63.60;100842.09;6113068;23;20036;-72
2022/06/14 05:55:36;;;;;;;4.45;1.58;;;;;;;16.42;64.07;100846.13;6110557;23;20010;-73
2022/06/14 05:58:22;;;;;;;5.18;1.40;;;;;;;16.60;64.19;100844.97;6134424;23;20014;-73
2022/06/14 06:00:56;;;;;;;6.15;1.85;;;;;;;16.81;64.28;100850.84;6160062;23;20001;-73
2022/06/14 06:03:36;;;;;;;4.32;1.45;;;;;;;16.99;64.27;100843.25;6110701;23;20033;-73
2022/06/14 06:06:04;;;;;;;5.50;1.70;;;;;;;17.22;65.55;100845.91;6134627;23;20419;-73
2022/06/14 06:08:43;;;;;;;8.38;2.20;;;;;;;17.33;65.34;100834.03;6159932;23;20017;-73
2022/06/14 06:11:16;;;;;;;4.97;1.98;;;;;;;17.49;64.33;100839.09;6108696;23;20005;-73
2022/06/14 06:13:49;;;;;;;7.65;1.70;;;;;;;17.63;62.31;100845.34;6111178;23;20006;-74
2022/06/14 06:16:20;;;;;;;5.85;2.20;;;;;;;17.76;64.32;100833.09;6133735;23;20063;-71
2022/06/14 06:19:10;;;;;;;7.05;1.80;;;;;;;17.88;62.84;100829.63;6134447;23;20113;-76
2022/06/14 06:22:10;;;;;;;6.07;1.70;;;;;;;18.01;62.95;100831.38;6108850;23;20338;-72
2022/06/14 06:24:54;;;;;;;11.48;2.40;;;;;;;18.19;62.76;100828.50;6121560;23;20040;-71
2022/06/14 06:27:23;;;;;;;11.25;2.45;;;;;;;18.35;62.19;100835.19;6111442;23;20085;-71
2022/06/14 06:29:53;;;;;;;10.23;2.10;;;;;;;18.51;62.75;100830.66;6133397;23;20092;-71
2022/06/14 06:32:19;;;;;;;6.68;1.85;;;;;;;18.61;62.69;100823.81;6109579;23;20009;-71
2022/06/14 06:34:45;;;;;;;6.00;1.95;;;;;;;18.76;61.48;100825.22;6108661;23;20013;-71
2022/06/14 06:37:18;;;;;;;5.38;1.60;;;;;;;18.98;59.79;100832.53;6133758;23;20454;-71
2022/06/14 06:39:53;;;;;;;8.70;1.70;;;;;;;19.19;59.89;100822.06;6109260;23;20327;-71
2022/06/14 06:42:31;;;;;;;6.75;1.60;;;;;;;19.36;59.35;100823.91;6134238;23;20435;-71
2022/06/14 06:45:17;;;;;;;7.25;1.83;;;;;;;19.56;60.07;100822.22;6159659;23;20017;-71
2022/06/14 06:47:51;;;;;;;3.97;1.80;;;;;;;19.70;60.85;100821.13;6159562;23;20569;-71
2022/06/14 06:50:22;;;;;;;5.50;1.80;;;;;;;19.90;58.83;100810.94;6159088;23;20017;-71
2022/06/14 06:52:53;;;;;;;4.95;1.70;;;;;;;20.04;58.25;100805.78;6134459;23;20040;-75
2022/06/14 06:55:34;;;;;;;7.95;1.77;;;;;;;20.19;57.44;100801.44;6159902;23;20075;-75
2022/06/14 06:58:01;;;;;;;9.40;2.10;;;;;;;20.39;57.13;100808.13;6159744;23;20016;-74
2022/06/14 07:00:27;;;;;;;8.68;1.80;;;;;;;20.51;56.26;100805.31;6133837;23;20033;-75
2022/06/14 07:02:55;;;;;;;7.28;1.52;;;;;;;20.65;55.61;100808.59;6133388;23;20335;-75
2022/06/14 07:05:21;;;;;;;7.43;2.40;;;;;;;20.80;55.41;100814.69;6108958;23;20435;-75
2022/06/14 07:07:50;;;;;;;6.00;1.80;;;;;;;20.92;54.81;100806.19;6157810;23;20031;-75
2022/06/14 07:10:24;;;;;;;3.78;1.85;;;;;;;21.04;54.62;100813.81;6109324;23;20021;-75
2022/06/14 07:12:56;;;;;;;6.15;1.73;;;;;;;21.15;53.86;100806.47;6133967;23;20010;-75
2022/06/14 07:15:47;;;;;;;5.15;2.03;;;;;;;21.14;53.81;100808.44;6134135;23;20009;-76
2022/06/14 07:18:26;;;;;;;6.20;1.70;;;;;;;21.26;53.52;100810.44;6112150;23;20016;-76
2022/06/14 07:20:58;;;;;;;5.82;1.85;;;;;;;21.31;53.08;100812.16;6086797;23;20013;-76
2022/06/14 07:23:40;;;;;;;6.72;1.80;;;;;;;21.41;53.55;100806.03;6110254;23;20037;-75
2022/06/14 07:26:26;;;;;;;9.70;2.28;;;;;;;21.49;52.59;100801.41;6133337;23;20466;-76
2022/06/14 07:29:05;;;;;;;4.68;1.60;;;;;;;21.58;52.40;100797.22;6108805;23;20005;-75
2022/06/14 07:31:48;;;;;;;6.43;1.75;;;;;;;21.70;52.16;100798.31;6086289;23;20025;-75
2022/06/14 07:34:14;;;;;;;5.45;1.63;;;;;;;21.81;51.68;100805.09;6132903;23;20017;-76
2022/06/14 07:36:39;;;;;;;6.05;1.60;;;;;;;21.86;51.70;100807.66;6109097;23;20068;-76
2022/06/14 07:39:46;;;;;;;3.72;1.40;;;;;;;21.92;51.58;100817.50;6159444;23;20072;-76
2022/06/14 07:42:38;;;;;;;6.47;1.60;;;;;;;21.99;51.66;100812.03;6068786;23;20022;-77
2022/06/14 07:45:24;;;;;;;6.35;1.83;;;;;;;22.04;51.63;100814.59;6089818;23;20558;-76
2022/06/14 07:47:56;;;;;;;6.30;1.95;;;;;;;22.11;51.39;100815.97;6044790;23;20024;-76
2022/06/14 07:51:05;;;;;;;6.50;2.00;;;;;;;22.14;51.15;100827.34;6044388;23;20007;-76
2022/06/14 07:53:48;;;;;;;5.32;1.50;;;;;;;22.23;51.35;100832.84;6008568;23;20014;-76
2022/06/14 07:56:15;;;;;;;;;;;;;;;22.36;50.83;100831.59;6093296;23;20037;-76
2022/06/14 07:58:50;;;;;;;4.53;1.52;;;;;;;22.43;50.83;100828.94;6068757;23;19906;-76
2022/06/14 08:01:31;;;;;;;4.78;1.52;;;;;;;22.55;50.60;100830.00;6068610;23;20007;-76
2022/06/14 08:04:35;;;;;;;7.85;1.70;;;;;;;22.64;50.46;100827.78;6044509;23;20349;-76
2022/06/14 08:07:02;;;;;;;6.60;1.95;;;;;;;22.72;50.37;100818.28;6039843;23;20011;-76
2022/06/14 08:09:36;;;;;;;7.70;1.27;;;;;;;22.85;49.99;100811.31;6016240;23;20104;-76
2022/06/14 08:12:06;;;;;;;7.68;2.08;;;;;;;22.90;49.67;100807.34;6022629;23;20385;-76
2022/06/14 08:14:41;;;;;;;5.80;1.95;;;;;;;23.04;48.75;100813.38;6074178;23;20062;-76
2022/06/14 08:17:08;;;;;;;4.93;1.83;;;;;;;23.12;48.74;100822.81;6073994;23;20026;-75
2022/06/14 08:19:37;;;;;;;6.93;1.83;;;;;;;23.29;48.97;100822.41;6049232;23;20042;-75
2022/06/14 08:22:07;;;;;;;7.35;1.90;;;;;;;23.38;48.02;100817.31;6073660;23;20340;-75
2022/06/14 08:24:36;;;;;;;6.30;2.22;;;;;;;23.56;47.39;100806.31;6049614;23;20504;-75
2022/06/14 08:27:11;;;;;;;5.40;1.90;;;;;;;23.75;46.94;100814.00;6073943;23;20063;-76
2022/06/14 08:29:47;;;;;;;7.15;2.15;;;;;;;23.88;46.82;100811.00;6050110;23;20059;-75
2022/06/14 08:32:19;;;;;;;5.97;1.95;;;;;;;23.97;47.19;100808.72;6074084;23;20012;-75
2022/06/14 08:34:58;;;;;;;5.82;2.05;;;;;;;24.08;46.58;100815.41;6072771;23;20161;-75
2022/06/14 08:37:37;;;;;;;7.63;1.88;;;;;;;24.14;46.34;100813.88;6113145;23;20013;-75
2022/06/14 08:40:18;;;;;;;5.80;1.80;;;;;;;24.25;45.46;100812.03;6084404;23;20064;-75
2022/06/14 08:42:47;;;;;;;6.20;1.67;;;;;;;24.36;45.21;100797.22;6132978;23;20041;-73
2022/06/14 08:45:23;;;;;;;4.60;2.08;;;;;;;24.45;45.52;100803.47;6084760;23;20498;-77
2022/06/14 08:47:59;;;;;;;6.32;1.92;;;;;;;24.49;44.42;100805.16;6133338;23;20056;-77
2022/06/14 08:51:06;;;;;;;7.35;2.00;;;;;;;24.69;44.45;100799.38;6156788;23;20017;-77
2022/06/14 08:53:34;;;;;;;8.38;2.03;;;;;;;24.88;43.51;100806.94;6117684;23;20009;-77
2022/06/14 08:56:21;;;;;;;4.38;1.65;;;;;;;25.01;42.75;100793.31;6132668;23;20018;-77
2022/06/14 08:59:11;;;;;;;8.52;1.88;;;;;;;25.09;41.71;100790.16;6133850;23;20002;-77
2022/06/14 09:01:57;;;;;;;7.07;1.70;;;;;;;25.31;42.29;100784.78;6160845;23;20338;-78
2022/06/14 09:04:30;;;;;;;11.85;2.03;;;;;;;25.45;42.34;100779.25;6085484;23;20347;-77
2022/06/14 09:07:08;;;;;;;6.00;1.88;;;;;;;25.60;42.10;100778.22;6134807;23;20013;-78
2022/06/14 09:09:49;;;;;;;6.88;2.20;;;;;;;25.69;41.40;100779.94;6160662;23;20555;-78
2022/06/14 09:12:59;;;;;;;12.25;2.03;;;;;;;25.76;41.13;100785.66;6134303;23;20021;-77
2022/06/14 09:15:48;;;;;;;12.30;2.17;;;;;;;25.89;41.18;100778.53;6096114;23;20033;-78
2022/06/14 09:18:23;;;;;;;5.18;1.75;;;;;;;26.10;40.93;100779.91;6148228;23;20095;-78
2022/06/14 09:21:16;;;;;;;7.93;1.88;;;;;;;26.10;40.49;100779.91;6134004;23;20005;-78
2022/06/14 09:24:34;;;;;;;8.98;2.15;;;;;;;26.24;38.99;100780.00;6133997;23;20032;-77
2022/06/14 09:27:05;;;;;;;10.90;2.25;;;;;;;26.26;38.57;100764.19;6089553;23;20069;-77
2022/06/14 09:29:52;;;;;;;6.15;1.80;;;;;;;26.34;39.56;100761.41;6104742;23;20010;-78
2022/06/14 09:33:09;;;;;;;6.15;1.90;;;;;;;26.49;39.37;100768.81;6178747;23;20066;-77
2022/06/14 09:35:44;;;;;;;9.45;1.95;;;;;;;26.64;39.39;100758.38;6148528;23;20097;-78
2022/06/14 09:38:34;;;;;;;3.83;1.55;;;;;;;26.82;39.31;100764.97;6152676;23;20069;-78
2022/06/14 09:41:26;;;;;;;6.65;1.90;;;;;;;26.91;38.68;100756.88;6130659;23;20084;-78
2022/06/14 09:44:00;;;;;;;6.45;1.77;;;;;;;26.91;37.70;100768.28;6178719;23;20355;-76
2022/06/14 09:46:48;;;;;;;6.47;1.90;;;;;;;26.88;37.70;100760.50;6130527;23;20459;-77
2022/06/14 09:49:22;;;;;;;6.88;2.17;;;;;;;26.89;36.63;100752.81;6127756;23;20010;-77
2022/06/14 09:52:21;;;;;;;9.10;1.88;;;;;;;26.95;36.66;100743.44;6178463;23;20071;-78
2022/06/14 09:55:05;;;;;;;6.03;2.00;;;;;;;27.09;36.27;100733.34;6178570;23;20020;-78
2022/06/14 09:58:00;;;;;;;8.27;2.22;;;;;;;27.11;36.19;100737.41;6128959;23;20017;-77
2022/06/14 10:00:31;;;;;;;7.25;1.90;;;;;;;27.13;36.11;100739.84;6127903;23;20005;-77
2022/06/14 10:03:54;;;;;;;5.55;1.88;;;;;;;27.12;35.70;100732.53;6153088;23;20049;-78
2022/06/14 10:06:37;;;;;;;5.75;1.80;;;;;;;27.22;34.95;100731.78;6127470;23;20014;-76
2022/06/14 10:09:31;;;;;;;6.88;1.63;;;;;;;27.29;34.95;100726.09;6127550;23;20010;-76
2022/06/14 10:12:29;;;;;;;5.60;2.10;;;;;;;27.35;35.07;100729.34;6101398;23;20024;-76
2022/06/14 10:15:18;;;;;;;7.63;1.92;;;;;;;27.49;35.50;100717.16;6153487;23;20057;-78
2022/06/14 10:18:12;;;;;;;9.57;1.98;;;;;;;27.62;35.68;100718.41;6148623;23;20006;-75
2022/06/14 10:20:39;;;;;;;6.95;1.60;;;;;;;27.77;35.40;100722.88;6130172;23;20017;-75
2022/06/14 10:23:38;;;;;;;6.10;1.70;;;;;;;27.81;34.78;100718.03;6153190;23;20010;-74
2022/06/14 10:29:08;;;;;;;8.18;1.83;;;;;;;27.93;34.73;100713.97;6130231;23;20005;-74
2022/06/14 10:31:52;;;;;;;8.23;2.20;;;;;;;28.10;34.78;100705.78;6181437;23;20457;-76
2022/06/14 10:34:31;;;;;;;6.57;1.85;;;;;;;28.27;34.57;100705.75;6133467;23;20036;-75
2022/06/14 10:37:11;;;;;;;4.90;1.65;;;;;;;28.42;34.14;100709.44;6086005;23;20021;-76
2022/06/14 10:39:58;;;;;;;5.55;1.80;;;;;;;28.52;34.13;100710.63;6133472;23;20551;-75
2022/06/14 10:42:37;;;;;;;7.75;1.85;;;;;;;28.46;33.42;100712.28;6159745;23;20017;-76
2022/06/14 10:45:09;;;;;;;7.95;1.90;;;;;;;28.50;33.08;100713.91;6111152;23;20012;-77
2022/06/14 10:47:34;;;;;;;9.55;2.00;;;;;;;28.54;32.66;100704.50;6159518;23;20005;-77
2022/06/14 10:50:15;;;;;;;6.50;1.95;;;;;;;28.41;33.16;100701.25;6158295;23;20057;-75
2022/06/14 10:52:47;;;;;;;6.82;1.70;;;;;;;28.41;33.49;100699.19;6133253;23;20018;-75
2022/06/14 10:55:19;;;;;;;8.18;1.88;;;;;;;28.38;32.18;100687.78;6132525;23;20414;-77
2022/06/14 10:58:03;;;;;;;;;;;;;;;28.39;33.27;100686.56;6133903;23;20009;-75
2022/06/14 11:00:31;;;;;;;6.00;1.73;;;;;;;28.44;33.70;100686.97;6182696;23;19904;-75
2022/06/14 11:03:16;;;;;;;4.85;1.60;;;;;;;28.44;32.55;100677.59;6133462;23;20374;-76
2022/06/14 11:06:10;;;;;;;4.85;1.48;;;;;;;28.49;32.99;100677.19;6157138;23;20537;-76
2022/06/14 11:08:48;;;;;;;7.57;1.85;;;;;;;28.56;32.83;100679.22;6132884;23;20214;-73
2022/06/14 11:11:17;;;;;;;5.90;1.60;;;;;;;28.53;32.98;100672.28;6133135;23;20447;-73
2022/06/14 11:14:12;;;;;;;8.32;2.00;;;;;;;28.45;33.31;100676.38;6159355;23;20009;-73
2022/06/14 11:17:02;;;;;;;5.35;1.63;;;;;;;28.32;33.21;100669.44;6159183;23;20013;-73
2022/06/14 11:19:39;;;;;;;7.63;1.58;;;;;;;28.37;33.28;100672.69;6108287;23;20416;-72
2022/06/14 11:22:25;;;;;;;4.70;1.45;;;;;;;28.36;33.57;100673.94;6132489;23;20066;-73
2022/06/14 11:25:16;;;;;;;7.82;1.83;;;;;;;28.47;33.78;100663.31;6132987;23;20033;-73
2022/06/14 11:27:58;;;;;;;6.68;1.52;;;;;;;28.70;33.50;100665.69;6133227;23;20423;-72
2022/06/14 11:30:33;;;;;;;5.90;1.58;;;;;;;28.84;33.29;100659.06;6128083;23;20006;-73
2022/06/14 11:33:29;;;;;;;6.82;1.60;;;;;;;28.95;32.42;100659.03;6129756;23;20021;-73
2022/06/14 11:36:12;;;;;;;6.50;1.60;;;;;;;28.94;32.25;100652.47;6129457;23;20070;-72
2022/06/14 11:38:50;;;;;;;7.40;1.55;;;;;;;29.03;31.96;100649.22;6177092;23;20009;-72
2022/06/14 11:41:17;;;;;;;6.55;1.75;;;;;;;29.14;32.60;100649.97;6175232;23;20010;-73
2022/06/14 11:44:03;;;;;;;5.47;1.67;;;;;;;29.12;32.71;100646.69;6128365;23;20013;-73
2022/06/14 11:46:55;;;;;;;6.10;1.70;;;;;;;29.11;32.38;100645.06;6126052;23;20002;-72
2022/06/14 11:49:45;;;;;;;4.82;1.55;;;;;;;29.07;32.24;100632.84;6128366;23;20037;-73
2022/06/14 11:52:18;;;;;;;5.22;1.45;;;;;;;29.21;32.23;100631.94;6177490;23;20038;-73
2022/06/14 11:54:49;;;;;;;4.30;1.65;;;;;;;29.25;31.25;100626.97;6127417;23;20018;-73
2022/06/14 11:57:32;;;;;;;4.40;1.53;;;;;;;29.22;32.08;100622.09;6129612;23;20380;-73
2022/06/14 12:00:03;;;;;;;;;;;;;;;29.33;31.49;100625.69;6153113;23;20006;-73
2022/06/14 12:02:40;;;;;;;7.20;1.70;;;;;;;29.45;31.88;100624.41;6129677;23;19952;-73
2022/06/14 12:05:24;;;;;;;4.40;1.60;;;;;;;29.52;31.80;100623.53;6129152;23;20010;-73
2022/06/14 12:07:58;;;;;;;5.90;1.55;;;;;;;29.58;31.18;100622.63;6129568;23;20419;-72
2022/06/14 12:10:32;;;;;;;5.28;1.70;;;;;;;29.65;30.89;100616.06;6151329;23;20489;-72
2022/06/14 12:13:20;;;;;;;6.47;2.00;;;;;;;29.59;30.67;100609.97;6151346;23;20030;-73
2022/06/14 12:15:54;;;;;;;4.95;1.55;;;;;;;29.56;30.65;100613.69;6128989;23;20487;-72
2022/06/14 12:18:22;;;;;;;6.20;1.60;;;;;;;29.50;29.98;100611.66;6129315;23;20494;-73
2022/06/14 12:21:08;;;;;;;5.03;1.42;;;;;;;29.51;29.58;100605.53;6176658;23;20324;-72
2022/06/14 12:23:37;;;;;;;4.68;1.50;;;;;;;29.37;29.47;100611.38;6175036;23;20010;-72
2022/06/14 12:26:34;;;;;;;6.57;1.73;;;;;;;29.41;29.58;100603.56;6128479;23;20037;-72